Time;durP1;ratioP1;P1;durP2;ratioP2;P2;SDS_P1;SDS_P2;PMS_P1;PMS_P2;Temp;Humidity;BMP_temperature;BMP_pressure;BME280_temperature;BME280_humidity;BME280_pressure;Samples;Min_cycle;Max_cycle;Signal;HPM_P1;HPM_P2
2022/01/13 00:00:20;;;;;;;165.02;96.90;;;;;;;-9.54;100.00;103012.78;5067956;28;20045;-80
2022/01/13 00:02:47;;;;;;;177.07;99.45;;;;;;;-9.46;100.00;103016.09;5062171;28;20068;-81
2022/01/13 00:05:14;;;;;;;162.73;94.55;;;;;;;-9.33;100.00;103021.09;5059651;28;20535;-80
2022/01/13 00:07:41;;;;;;;157.40;96.60;;;;;;;-9.27;100.00;103024.41;5067176;28;20484;-79
2022/01/13 00:10:09;;;;;;;117.55;79.70;;;;;;;-9.42;100.00;103021.22;5061961;28;20469;-80
2022/01/13 00:12:40;;;;;;;119.68;78.78;;;;;;;-9.55;100.00;103018.81;5066750;28;20102;-80
2022/01/13 00:15:26;;;;;;;96.25;74.00;;;;;;;-9.57;100.00;103022.25;5067510;28;20052;-80
2022/01/13 00:18:03;;;;;;;110.97;73.72;;;;;;;-9.55;100.00;103026.53;5062581;28;20047;-80
2022/01/13 00:20:58;;;;;;;106.13;70.38;;;;;;;-9.66;100.00;103020.66;5056784;28;20122;-79
2022/01/13 00:23:44;;;;;;;92.90;68.07;;;;;;;-9.70;100.00;103021.56;5061872;28;20131;-80
2022/01/13 00:26:19;;;;;;;96.57;68.70;;;;;;;-9.52;100.00;103020.50;5068505;28;20048;-80
2022/01/13 00:28:48;;;;;;;116.97;74.47;;;;;;;-9.78;100.00;103025.94;5062931;28;20045;-78
2022/01/13 00:31:18;;;;;;;182.35;92.30;;;;;;;-10.00;100.00;103023.63;5064185;28;20091;-81
2022/01/13 00:33:46;;;;;;;192.50;91.47;;;;;;;-9.84;100.00;103032.03;5071002;28;20053;-82
2022/01/13 00:36:14;;;;;;;185.57;93.88;;;;;;;-9.38;100.00;103036.56;5069483;28;20048;-81
2022/01/13 00:38:41;;;;;;;206.88;101.05;;;;;;;-9.20;100.00;103032.06;5060679;28;20366;-80
2022/01/13 00:41:08;;;;;;;185.50;95.28;;;;;;;-9.05;100.00;103027.53;5065899;28;20041;-81
2022/01/13 00:43:39;;;;;;;151.15;81.80;;;;;;;-8.97;100.00;103029.16;5065902;28;20126;-80
2022/01/13 00:46:06;;;;;;;133.60;80.97;;;;;;;-8.82;100.00;103031.47;5066668;28;20049;-80
2022/01/13 00:48:35;;;;;;;146.05;94.13;;;;;;;-8.82;100.00;103031.47;5067599;28;20056;-79
2022/01/13 00:51:01;;;;;;;162.85;101.75;;;;;;;-8.89;100.00;103029.88;5059120;28;20048;-83
2022/01/13 00:53:28;;;;;;;181.40;102.53;;;;;;;-8.54;100.00;103030.13;5065351;28;20049;-80
2022/01/13 00:56:01;;;;;;;215.50;111.15;;;;;;;-8.31;100.00;103028.88;5070893;28;20048;-81
2022/01/13 00:58:28;;;;;;;219.85;108.13;;;;;;;-8.37;100.00;103028.97;5068466;28;20048;-80
2022/01/13 01:00:56;;;;;;;211.60;107.35;;;;;;;-8.08;100.00;103033.59;5066343;28;20106;-81
2022/01/13 01:03:24;;;;;;;176.05;98.65;;;;;;;-8.36;100.00;103031.50;5067488;28;20055;-81
2022/01/13 01:05:53;;;;;;;147.68;92.97;;;;;;;-8.09;100.00;103040.47;5066249;28;20044;-80
2022/01/13 01:08:20;;;;;;;119.38;79.05;;;;;;;-8.09;100.00;103040.47;5065146;28;20052;-79
2022/01/13 01:10:50;;;;;;;122.93;78.97;;;;;;;-7.99;100.00;103043.72;5064648;28;20045;-81
2022/01/13 01:13:21;;;;;;;128.20;89.45;;;;;;;-8.04;100.00;103035.25;5068317;28;20049;-80
2022/01/13 01:15:52;;;;;;;121.80;78.85;;;;;;;-8.16;100.00;103033.75;5067314;28;20049;-80
2022/01/13 01:18:29;;;;;;;113.22;78.15;;;;;;;-7.82;100.00;103045.16;5061590;28;20053;-80
2022/01/13 01:21:19;;;;;;;119.00;85.35;;;;;;;-7.78;100.00;103047.63;5058613;28;20049;-79
2022/01/13 01:24:11;;;;;;;131.50;90.80;;;;;;;-7.61;100.00;103049.88;5062493;28;20045;-79
2022/01/13 01:26:41;;;;;;;88.28;64.43;;;;;;;-7.66;100.00;103049.94;5062562;28;20056;-81
2022/01/13 01:29:17;;;;;;;103.43;68.50;;;;;;;-7.51;100.00;103048.78;5062567;28;20378;-80
2022/01/13 01:31:48;;;;;;;163.75;91.57;;;;;;;-7.53;100.00;103036.78;5063247;28;20045;-79
2022/01/13 01:34:27;;;;;;;116.60;75.97;;;;;;;-7.52;100.00;103043.66;5066796;28;20129;-82
2022/01/13 01:36:56;;;;;;;190.57;106.82;;;;;;;-7.52;100.00;103044.50;5066555;28;20045;-80
2022/01/13 01:39:23;;;;;;;484.67;185.63;;;;;;;-7.55;100.00;103043.75;5065112;28;20489;-78
2022/01/13 01:41:52;;;;;;;111.97;69.25;;;;;;;-7.64;100.00;103037.88;5063609;28;20547;-80
2022/01/13 01:44:23;;;;;;;898.85;318.45;;;;;;;-7.40;100.00;103044.25;5064432;28;20057;-79
2022/01/13 01:46:50;;;;;;;239.63;107.43;;;;;;;-7.66;100.00;103034.47;5062862;28;20051;-81
2022/01/13 01:49:20;;;;;;;775.33;326.27;;;;;;;-7.32;100.00;103038.06;5074168;28;20052;-79
2022/01/13 01:51:49;;;;;;;267.75;111.65;;;;;;;-7.41;100.00;103034.81;5067460;28;20103;-79
2022/01/13 01:54:18;;;;;;;552.00;251.90;;;;;;;-7.26;100.00;103041.38;5068070;28;20045;-82
2022/01/13 01:56:46;;;;;;;96.05;67.15;;;;;;;-7.41;100.00;103039.13;5066251;28;20481;-80
2022/01/13 01:59:17;;;;;;;62.42;55.67;;;;;;;-7.36;100.00;103050.19;5064777;28;20108;-79
2022/01/13 02:01:46;;;;;;;524.80;229.48;;;;;;;-7.43;100.00;103046.06;5063842;28;20052;-79
2022/01/13 02:04:13;;;;;;;400.38;166.13;;;;;;;-7.45;100.00;103043.50;5069284;28;20052;-78
2022/01/13 02:06:43;;;;;;;97.65;68.55;;;;;;;-7.42;100.00;103040.00;5068532;28;20382;-79
2022/01/13 02:09:11;;;;;;;71.90;57.33;;;;;;;-7.46;100.00;103031.47;5067898;28;20064;-80
2022/01/13 02:11:43;;;;;;;109.65;72.00;;;;;;;-7.35;100.00;103040.72;5066301;28;20378;-80
2022/01/13 02:14:31;;;;;;;60.80;55.03;;;;;;;-7.35;100.00;103030.38;5067717;28;20122;-79
2022/01/13 02:17:02;;;;;;;62.28;55.88;;;;;;;-7.27;100.00;103029.34;5066314;28;20071;-80
2022/01/13 02:19:30;;;;;;;125.33;90.10;;;;;;;-7.34;100.00;103032.94;5063440;28;20063;-79
2022/01/13 02:21:59;;;;;;;62.20;55.90;;;;;;;-7.37;100.00;103038.19;5067842;28;20766;-79
2022/01/13 02:24:26;;;;;;;61.40;55.35;;;;;;;-7.24;100.00;103031.00;5067330;28;20465;-79
2022/01/13 02:26:53;;;;;;;63.42;56.85;;;;;;;-7.28;100.00;103035.38;5063362;28;20106;-81
2022/01/13 02:29:20;;;;;;;155.60;100.82;;;;;;;-7.08;100.00;103029.78;5066667;28;20117;-78
2022/01/13 02:31:47;;;;;;;58.88;52.78;;;;;;;-7.12;100.00;103037.63;5062854;28;20052;-79
2022/01/13 02:34:13;;;;;;;56.78;50.92;;;;;;;-7.11;100.00;103044.47;5065401;28;20090;-80
2022/01/13 02:36:42;;;;;;;91.53;77.53;;;;;;;-7.13;100.00;103038.53;5067726;28;20052;-80
2022/01/13 02:39:10;;;;;;;71.25;60.95;;;;;;;-7.03;100.00;103047.75;5067943;28;20049;-80
2022/01/13 02:41:37;;;;;;;148.55;100.07;;;;;;;-7.07;100.00;103034.06;5064049;28;20045;-80
2022/01/13 02:44:11;;;;;;;317.38;169.40;;;;;;;-7.00;100.00;103042.50;5068305;28;20106;-80
2022/01/13 02:46:56;;;;;;;81.93;67.10;;;;;;;-7.10;100.00;103046.19;5065329;28;20465;-78
2022/01/13 02:49:25;;;;;;;79.15;64.35;;;;;;;-7.10;100.00;103043.63;5063200;28;20110;-79
2022/01/13 02:51:54;;;;;;;115.18;80.65;;;;;;;-6.97;100.00;103055.34;5061316;28;20476;-79
2022/01/13 02:54:22;;;;;;;254.65;133.85;;;;;;;-6.98;100.00;103054.50;5071035;28;20118;-81
2022/01/13 02:56:49;;;;;;;314.50;147.77;;;;;;;-7.14;100.00;103053.16;5062399;28;20117;-80
2022/01/13 02:59:16;;;;;;;91.88;70.35;;;;;;;-6.95;100.00;103051.03;5065437;28;20122;-79
2022/01/13 03:01:43;;;;;;;68.72;61.67;;;;;;;-6.89;100.00;103050.03;5160384;23;20107;-78
2022/01/13 03:04:10;;;;;;;97.57;78.35;;;;;;;-6.84;100.00;103040.41;5045346;28;20049;-80
2022/01/13 03:06:40;;;;;;;62.58;56.63;;;;;;;-6.89;100.00;103037.09;5041866;28;20132;-79
2022/01/13 03:09:08;;;;;;;64.22;57.67;;;;;;;-6.84;100.00;103036.09;5043006;28;20484;-82
2022/01/13 03:11:37;;;;;;;74.00;66.90;;;;;;;-6.92;100.00;103041.47;5043315;28;20500;-80
2022/01/13 03:14:05;;;;;;;73.57;65.88;;;;;;;-6.82;100.00;103042.06;5046650;28;20080;-80
2022/01/13 03:16:32;;;;;;;80.10;67.50;;;;;;;-6.86;100.00;103032.72;5042316;28;20053;-80
2022/01/13 03:18:58;;;;;;;73.80;65.70;;;;;;;-6.89;100.00;103035.38;5051784;28;20118;-80
2022/01/13 03:21:25;;;;;;;98.93;79.32;;;;;;;-6.85;100.00;103036.97;5044246;28;20045;-82
2022/01/13 03:23:52;;;;;;;71.57;64.15;;;;;;;-6.87;100.00;103035.31;5046016;28;20481;-79
2022/01/13 03:26:20;;;;;;;90.75;77.57;;;;;;;-6.88;100.00;103026.72;5045024;28;20044;-79
2022/01/13 03:28:54;;;;;;;67.25;61.35;;;;;;;-6.49;100.00;103026.63;5047832;28;20052;-79
2022/01/13 03:31:23;;;;;;;76.28;68.35;;;;;;;-6.66;100.00;103019.28;5043864;28;20049;-79
2022/01/13 03:33:53;;;;;;;84.80;73.00;;;;;;;-6.55;100.00;103030.22;5045216;28;20110;-78
2022/01/13 03:36:20;;;;;;;70.88;64.22;;;;;;;-6.57;100.00;103031.97;5047654;28;20440;-79
2022/01/13 03:38:47;;;;;;;61.55;55.38;;;;;;;-6.41;100.00;103031.59;5049645;28;20099;-80
2022/01/13 03:41:14;;;;;;;63.50;57.08;;;;;;;-6.54;100.00;103031.06;5041253;28;20123;-79
2022/01/13 03:43:41;;;;;;;59.30;53.20;;;;;;;-6.38;100.00;103034.97;5044893;28;20098;-80
2022/01/13 03:46:11;;;;;;;55.95;50.28;;;;;;;-6.56;100.00;103025.09;5042757;28;20049;-78
2022/01/13 03:48:37;;;;;;;55.30;49.92;;;;;;;-6.55;100.00;103030.22;5042006;28;20479;-81
2022/01/13 03:51:04;;;;;;;57.80;51.88;;;;;;;-6.57;100.00;103037.16;5050318;28;20478;-80
2022/01/13 03:54:07;;;;;;;63.85;57.65;;;;;;;-6.53;100.00;103033.63;5042458;28;20115;-78
2022/01/13 03:57:25;;;;;;;68.07;61.25;;;;;;;-6.27;100.00;103042.44;5041586;28;20421;-78
2022/01/13 04:00:46;;;;;;;67.32;60.75;;;;;;;-6.33;100.00;103035.69;5043149;28;20053;-80
2022/01/13 04:03:14;;;;;;;70.25;64.28;;;;;;;-6.28;100.00;103033.81;5019963;28;20104;-79
2022/01/13 04:06:04;;;;;;;64.90;58.97;;;;;;;-6.42;100.00;103035.91;5031278;28;20038;-79
2022/01/13 04:08:31;;;;;;;63.90;57.65;;;;;;;-6.29;100.00;103041.66;5022640;28;20097;-81
2022/01/13 04:11:17;;;;;;;67.40;60.45;;;;;;;-6.22;100.00;103045.75;5024565;28;20050;-79
2022/01/13 04:13:49;;;;;;;59.30;53.75;;;;;;;-6.36;100.00;103034.91;5026760;28;20073;-80
2022/01/13 04:16:17;;;;;;;;;;;;;;;-6.28;100.00;103036.41;5032877;28;20398;-80
2022/01/13 04:18:45;;;;;;;60.13;54.25;;;;;;;-6.20;100.00;103040.53;5026116;28;19924;-78
2022/01/13 04:21:12;;;;;;;60.97;55.05;;;;;;;-6.26;100.00;103046.75;5033840;28;20046;-79
2022/01/13 04:23:40;;;;;;;61.85;55.72;;;;;;;-6.16;100.00;103048.19;5024788;28;20049;-79
2022/01/13 04:26:07;;;;;;;61.20;55.35;;;;;;;-6.23;100.00;103049.25;5027075;28;20088;-79
2022/01/13 04:28:34;;;;;;;63.90;57.67;;;;;;;-6.12;100.00;103056.69;5035585;28;20111;-79
2022/01/13 04:31:01;;;;;;;61.63;55.47;;;;;;;-6.25;100.00;103056.19;5025914;28;20056;-78
2022/01/13 04:33:28;;;;;;;65.03;58.65;;;;;;;-6.14;100.00;103063.66;5031553;28;20092;-79
2022/01/13 04:35:58;;;;;;;60.15;54.65;;;;;;;-6.16;100.00;103060.28;5033510;28;20061;-82
2022/01/13 04:38:25;;;;;;;63.28;57.65;;;;;;;-6.19;100.00;103057.75;5030696;28;20046;-79
2022/01/13 04:40:56;;;;;;;61.00;54.90;;;;;;;-6.37;100.00;103065.09;5025932;28;20478;-81
2022/01/13 04:43:24;;;;;;;64.45;58.03;;;;;;;-6.05;100.00;103059.09;5033946;28;20114;-81
2022/01/13 04:45:51;;;;;;;67.10;60.55;;;;;;;-6.05;100.00;103053.94;5022378;28;20049;-80
2022/01/13 04:48:18;;;;;;;63.28;57.28;;;;;;;-6.02;100.00;103055.56;5025969;28;20077;-80
2022/01/13 04:50:46;;;;;;;60.88;54.55;;;;;;;-5.92;100.00;103057.00;5033897;28;20042;-80
2022/01/13 04:53:15;;;;;;;59.50;53.47;;;;;;;-5.86;100.00;103056.81;5027214;28;20131;-80
2022/01/13 04:55:49;;;;;;;59.22;53.13;;;;;;;-6.04;100.00;103059.94;5024459;28;20127;-79
2022/01/13 04:58:16;;;;;;;61.75;55.50;;;;;;;-5.87;100.00;103057.72;5025227;28;20056;-79
2022/01/13 05:00:43;;;;;;;60.53;54.20;;;;;;;-5.91;100.00;103063.84;5029743;28;20115;-79
2022/01/13 05:03:10;;;;;;;62.83;56.33;;;;;;;-5.84;100.00;103069.69;5029940;28;20046;-79
2022/01/13 05:05:37;;;;;;;59.75;53.83;;;;;;;-5.98;100.00;103072.72;5021619;28;20054;-79
2022/01/13 05:08:04;;;;;;;60.70;52.28;;;;;;;-5.94;100.00;103073.47;5027075;28;20117;-80
2022/01/13 05:10:32;;;;;;;62.42;53.83;;;;;;;-5.82;100.00;103078.28;5028612;28;20057;-81
2022/01/13 05:12:59;;;;;;;63.05;56.17;;;;;;;-5.71;100.00;103072.81;5027137;28;20058;-81
2022/01/13 05:15:27;;;;;;;64.32;57.70;;;;;;;-5.87;100.00;103077.56;5022830;28;20046;-82
2022/01/13 05:20:37;;;;;;;64.28;57.35;;;;;;;-5.72;100.00;103077.13;5030845;28;20397;-81
2022/01/13 05:23:06;;;;;;;63.92;57.33;;;;;;;-5.76;100.00;103078.13;5031813;28;20052;-81
2022/01/13 05:25:34;;;;;;;67.80;58.95;;;;;;;-5.72;100.00;103074.53;5029605;28;20129;-82
2022/01/13 05:28:01;;;;;;;68.55;61.85;;;;;;;-5.86;100.00;103076.69;4983326;28;20445;-82
2022/01/13 05:30:28;;;;;;;91.13;66.13;;;;;;;-5.77;100.00;103084.19;5020953;28;20045;-79
2022/01/13 05:32:56;;;;;;;84.93;69.00;;;;;;;-5.80;100.00;103090.31;5015287;28;20065;-81
2022/01/13 05:35:24;;;;;;;170.85;89.10;;;;;;;-5.56;100.00;103082.75;5020009;28;20049;-83
2022/01/13 05:37:51;;;;;;;84.63;60.15;;;;;;;-5.35;100.00;103082.13;5023015;28;20074;-80
2022/01/13 05:40:19;;;;;;;63.08;57.67;;;;;;;-0.52;100.00;103094.38;5020535;28;20108;-79
2022/01/13 05:42:49;;;;;;;70.85;61.92;;;;;;;-0.33;100.00;103096.94;5019436;28;20041;-81
2022/01/13 05:45:19;;;;;;;82.55;66.97;;;;;;;-3.38;100.00;103096.34;5018718;28;20532;-81
2022/01/13 05:47:47;;;;;;;80.65;71.97;;;;;;;-5.40;100.00;103093.50;5020310;28;20057;-80
2022/01/13 05:50:16;;;;;;;89.75;74.38;;;;;;;-5.78;100.00;103093.72;5028262;28;20379;-79
2022/01/13 05:52:42;;;;;;;81.97;69.93;;;;;;;-5.39;100.00;103100.38;5021747;28;20441;-79
2022/01/13 05:55:10;;;;;;;77.50;66.13;;;;;;;-5.76;100.00;103093.66;5023661;28;20046;-82
2022/01/13 05:57:37;;;;;;;76.68;66.82;;;;;;;-5.28;100.00;103119.06;5021320;28;20056;-82
2022/01/13 06:00:08;;;;;;;85.18;75.82;;;;;;;-5.24;100.00;103120.66;5021647;28;20049;-83
2022/01/13 06:02:35;;;;;;;89.25;77.30;;;;;;;-5.25;100.00;103120.72;5012532;28;20059;-80
2022/01/13 06:05:02;;;;;;;133.65;109.05;;;;;;;-5.35;100.00;103102.00;5004062;28;20051;-80
2022/01/13 06:07:28;;;;;;;144.10;109.03;;;;;;;-5.33;100.00;103116.59;5009752;28;20065;-79
2022/01/13 06:09:55;;;;;;;153.65;117.68;;;;;;;-5.21;100.00;103110.19;5002332;28;20525;-82
2022/01/13 06:12:32;;;;;;;118.03;98.68;;;;;;;-5.28;100.00;103113.88;5011042;28;20057;-81
2022/01/13 06:14:59;;;;;;;115.68;100.63;;;;;;;-5.09;100.00;103119.34;5008989;28;20066;-81
2022/01/13 06:17:27;;;;;;;117.93;100.95;;;;;;;-5.02;100.00;103123.50;5007038;28;20057;-77
2022/01/13 06:19:55;;;;;;;126.43;103.35;;;;;;;-5.11;100.00;103126.34;5007156;28;20052;-81
2022/01/13 06:22:23;;;;;;;175.68;124.75;;;;;;;-5.02;100.00;103127.78;5008996;28;20042;-78
2022/01/13 06:24:51;;;;;;;109.72;91.22;;;;;;;-5.07;100.00;103125.34;5004690;28;20046;-78
2022/01/13 06:27:17;;;;;;;136.55;95.50;;;;;;;-4.84;100.00;103137.63;5011751;28;20129;-78
2022/01/13 06:29:44;;;;;;;127.07;99.55;;;;;;;-4.75;100.00;103144.25;5004284;28;20046;-81
2022/01/13 06:32:11;;;;;;;119.90;87.60;;;;;;;-4.85;100.00;103136.75;5012659;28;20477;-77
2022/01/13 06:34:39;;;;;;;113.45;82.30;;;;;;;-4.77;100.00;103144.31;5014914;28;20089;-80
2022/01/13 06:37:06;;;;;;;117.25;89.03;;;;;;;-4.73;100.00;103134.69;5011451;28;20046;-78
2022/01/13 06:39:32;;;;;;;128.38;97.20;;;;;;;-4.68;100.00;103138.84;5004182;28;20054;-78
2022/01/13 06:41:59;;;;;;;122.13;103.35;;;;;;;-4.68;100.00;103127.63;5008422;28;20467;-80
2022/01/13 06:44:26;;;;;;;130.93;100.88;;;;;;;-4.73;100.00;103135.53;5003027;28;20101;-80
2022/01/13 06:46:53;;;;;;;148.73;101.25;;;;;;;-4.57;100.00;103148.03;5005075;28;20043;-79
2022/01/13 06:49:19;;;;;;;173.57;124.22;;;;;;;-4.53;100.00;103150.50;5013788;28;20379;-81
2022/01/13 06:51:47;;;;;;;145.65;105.28;;;;;;;-4.49;100.00;103146.06;5012574;28;20042;-81
2022/01/13 06:54:14;;;;;;;173.32;121.85;;;;;;;-4.43;100.00;103144.09;5010602;28;20062;-80
2022/01/13 06:56:41;;;;;;;126.32;94.78;;;;;;;-4.35;100.00;103143.03;5007110;28;20046;-79
2022/01/13 06:59:11;;;;;;;132.18;96.13;;;;;;;-4.35;100.00;103150.81;5004278;28;20108;-80
2022/01/13 07:01:38;;;;;;;118.15;92.90;;;;;;;-4.35;100.00;103145.63;5010743;28;20085;-82
2022/01/13 07:04:05;;;;;;;120.65;92.38;;;;;;;-4.04;100.00;103138.50;5027779;28;20485;-79
2022/01/13 07:06:33;;;;;;;127.10;92.57;;;;;;;-4.11;100.00;103139.63;5030339;28;20183;-80
2022/01/13 07:09:03;;;;;;;119.20;90.60;;;;;;;-4.07;100.00;103146.38;5022712;28;20478;-77
2022/01/13 07:11:29;;;;;;;112.30;93.63;;;;;;;-4.09;100.00;103148.19;5024369;28;20057;-83
2022/01/13 07:13:56;;;;;;;123.30;99.13;;;;;;;-3.86;100.00;103156.97;5031082;28;20049;-80
2022/01/13 07:16:23;;;;;;;121.53;98.88;;;;;;;-3.70;100.00;103158.94;5032044;28;20448;-79
2022/01/13 07:18:50;;;;;;;89.90;80.50;;;;;;;-3.55;100.00;103161.91;5029694;28;20054;-80
2022/01/13 07:21:18;;;;;;;79.15;72.25;;;;;;;-3.40;100.00;103150.13;5032535;28;20053;-80
2022/01/13 07:23:45;;;;;;;77.28;70.57;;;;;;;-3.41;100.00;103162.28;5030708;28;20061;-82
2022/01/13 07:26:14;;;;;;;82.50;74.65;;;;;;;-3.39;100.00;103149.22;5032551;28;20448;-82
2022/01/13 07:28:41;;;;;;;81.45;74.15;;;;;;;-3.28;100.00;103155.72;5034486;28;20410;-78
2022/01/13 07:31:08;;;;;;;83.38;75.97;;;;;;;-3.29;100.00;103145.41;5031544;28;20053;-81
2022/01/13 07:33:35;;;;;;;84.88;77.45;;;;;;;-3.26;100.00;103147.88;5030048;28;20045;-79
2022/01/13 07:36:02;;;;;;;84.32;76.97;;;;;;;-3.15;100.00;103163.06;5030551;28;20417;-79
2022/01/13 07:38:28;;;;;;;83.70;76.22;;;;;;;-3.10;100.00;103164.59;5031272;28;20045;-80
2022/01/13 07:40:55;;;;;;;89.85;81.75;;;;;;;-3.19;100.00;103151.09;5026103;28;20119;-83
2022/01/13 07:43:25;;;;;;;96.28;87.47;;;;;;;-3.21;100.00;103161.53;5023950;28;20042;-79
2022/01/13 07:45:52;;;;;;;100.07;90.85;;;;;;;-3.25;100.00;103166.00;5034154;28;20045;-80
2022/01/13 07:48:19;;;;;;;100.63;91.47;;;;;;;-3.29;100.00;103176.59;5029087;28;20053;-82
2022/01/13 07:50:47;;;;;;;92.45;83.72;;;;;;;-3.32;100.00;103171.50;5043108;28;20371;-81
2022/01/13 07:53:14;;;;;;;93.22;84.03;;;;;;;-3.24;100.00;103165.13;5030055;28;20045;-82
2022/01/13 07:55:42;;;;;;;88.43;79.43;;;;;;;-3.30;100.00;103154.09;5028429;28;20441;-81
2022/01/13 07:58:09;;;;;;;91.85;82.65;;;;;;;-3.33;100.00;103155.06;5030001;28;20061;-78
2022/01/13 08:00:38;;;;;;;97.30;87.40;;;;;;;-3.24;100.00;103167.72;5031538;28;20107;-78
2022/01/13 08:03:05;;;;;;;97.32;87.43;;;;;;;-3.34;100.00;103162.91;5028702;28;20114;-82
2022/01/13 08:05:32;;;;;;;96.20;86.63;;;;;;;-3.42;100.00;103176.16;5032085;28;20126;-80
2022/01/13 08:07:59;;;;;;;95.53;86.60;;;;;;;-3.46;100.00;103178.03;5030186;28;20405;-79
2022/01/13 08:10:26;;;;;;;95.55;86.30;;;;;;;-3.39;100.00;103183.84;5027918;28;20045;-80
2022/01/13 08:12:57;;;;;;;96.60;87.63;;;;;;;-3.15;100.00;103178.66;5031651;28;20103;-82
2022/01/13 08:15:24;;;;;;;99.10;89.55;;;;;;;-3.50;100.00;103166.06;5026461;28;20465;-81
2022/01/13 08:20:36;;;;;;;114.45;103.35;;;;;;;-3.35;100.00;103167.25;5016593;28;20072;-81
2022/01/13 08:23:03;;;;;;;102.07;91.60;;;;;;;-3.34;100.00;103175.91;5023425;28;20116;-81
2022/01/13 08:25:31;;;;;;;101.97;91.55;;;;;;;-3.36;100.00;103193.28;5019373;28;20057;-79
2022/01/13 08:27:58;;;;;;;102.85;92.45;;;;;;;-3.30;100.00;103198.25;5021108;28;20478;-80
2022/01/13 08:30:25;;;;;;;91.40;82.38;;;;;;;-3.49;100.00;103198.91;5026778;28;20088;-81
2022/01/13 08:32:53;;;;;;;102.22;92.22;;;;;;;-3.24;100.00;103192.84;5020403;28;20445;-81
2022/01/13 08:35:20;;;;;;;100.32;90.18;;;;;;;-3.45;100.00;103186.66;5031175;28;20053;-82
2022/01/13 08:37:47;;;;;;;99.93;89.15;;;;;;;-3.16;100.00;103188.22;5024633;28;20108;-81
2022/01/13 08:40:15;;;;;;;100.68;90.75;;;;;;;-3.20;100.00;103183.22;5024752;28;20057;-80
2022/01/13 08:42:43;;;;;;;99.43;88.80;;;;;;;-3.07;100.00;103185.28;5018680;28;20107;-82
2022/01/13 08:45:12;;;;;;;96.13;86.85;;;;;;;-2.71;100.00;103181.34;5018888;28;20096;-82
2022/01/13 08:47:39;;;;;;;103.97;93.43;;;;;;;-3.16;100.00;103175.22;5025489;28;20123;-82
2022/01/13 08:50:08;;;;;;;103.97;93.18;;;;;;;-3.01;100.00;103168.59;5016817;28;20049;-80
2022/01/13 08:52:37;;;;;;;98.60;87.95;;;;;;;-2.84;100.00;103165.38;5024909;28;20448;-78
2022/01/13 08:55:06;;;;;;;100.20;90.18;;;;;;;-2.93;100.00;103152.72;5019833;28;20136;-78
2022/01/13 08:57:33;;;;;;;102.45;92.45;;;;;;;-2.85;100.00;103150.66;5022691;28;20473;-80
2022/01/13 09:00:00;;;;;;;100.13;89.97;;;;;;;-2.71;100.00;103153.59;5025139;28;20045;-81
2022/01/13 09:02:32;;;;;;;101.30;90.60;;;;;;;-2.20;100.00;103148.94;5024895;28;20115;-81
2022/01/13 09:04:59;;;;;;;97.88;87.75;;;;;;;-2.32;100.00;103148.53;5027627;28;20107;-81
2022/01/13 09:07:27;;;;;;;95.82;85.65;;;;;;;-2.28;100.00;103149.25;5024225;28;20119;-81
2022/01/13 09:09:54;;;;;;;90.70;81.20;;;;;;;-2.15;100.00;103153.06;5030333;28;20053;-81
2022/01/13 09:12:21;;;;;;;80.32;72.95;;;;;;;-2.45;100.00;103131.75;5028314;28;20477;-80
2022/01/13 09:14:50;;;;;;;89.65;80.80;;;;;;;-1.98;100.00;103118.47;5025384;28;20512;-78
2022/01/13 09:17:22;;;;;;;84.55;76.28;;;;;;;-1.92;100.00;103130.41;5030738;28;20133;-79
2022/01/13 09:19:49;;;;;;;91.53;83.13;;;;;;;-2.12;100.00;103136.44;5027345;28;20049;-82
2022/01/13 09:22:16;;;;;;;96.85;86.95;;;;;;;-1.83;100.00;103129.16;5024929;28;20108;-81
2022/01/13 09:24:45;;;;;;;90.88;82.35;;;;;;;-2.07;100.00;103111.91;5028983;28;20046;-79
2022/01/13 09:27:12;;;;;;;94.43;85.32;;;;;;;-2.26;100.00;103123.16;5029565;28;20123;-82
2022/01/13 09:29:39;;;;;;;91.90;83.13;;;;;;;-2.14;100.00;103107.88;5025294;28;20065;-82
2022/01/13 09:32:07;;;;;;;84.82;76.82;;;;;;;-2.02;100.00;103095.25;5029153;28;20115;-78
2022/01/13 09:34:33;;;;;;;85.88;78.00;;;;;;;-2.25;100.00;103094.44;5024211;28;20054;-81
2022/01/13 09:37:00;;;;;;;91.82;83.15;;;;;;;-2.16;100.00;103094.06;5023860;28;20053;-78
2022/01/13 09:39:27;;;;;;;88.35;79.85;;;;;;;-2.42;100.00;103084.75;5024610;28;20079;-81
2022/01/13 09:41:57;;;;;;;84.70;76.22;;;;;;;-2.48;100.00;103079.81;5025572;28;20049;-81
2022/01/13 09:44:28;;;;;;;86.57;78.57;;;;;;;-2.59;100.00;103068.97;5023432;28;20123;-83
2022/01/13 09:46:55;;;;;;;86.28;77.53;;;;;;;-2.28;100.00;103062.50;5027832;28;20474;-78
2022/01/13 09:49:22;;;;;;;97.07;86.80;;;;;;;-2.15;100.00;103053.25;5027018;28;20476;-81
2022/01/13 09:51:49;;;;;;;89.03;80.50;;;;;;;-2.53;100.00;103066.97;5029738;28;20453;-81
2022/01/13 09:54:16;;;;;;;92.88;83.82;;;;;;;-2.50;100.00;103067.75;5024509;28;20049;-79
2022/01/13 09:56:43;;;;;;;89.28;80.18;;;;;;;-2.91;100.00;103060.72;5024734;28;20124;-81
2022/01/13 09:59:11;;;;;;;87.60;78.75;;;;;;;-2.56;100.00;103064.50;5025510;28;20109;-80
2022/01/13 10:01:38;;;;;;;88.43;79.60;;;;;;;-2.44;100.00;103060.53;5024914;28;20054;-81
2022/01/13 10:04:05;;;;;;;95.57;86.15;;;;;;;-2.52;100.00;103070.41;5025194;28;20050;-82
2022/01/13 10:06:41;;;;;;;89.50;80.85;;;;;;;-2.33;100.00;103080.91;5019314;28;20065;-81
2022/01/13 10:09:08;;;;;;;87.32;78.43;;;;;;;-2.60;100.00;103088.97;5023796;28;20413;-78
2022/01/13 10:11:39;;;;;;;79.18;71.53;;;;;;;-2.30;100.00;103083.38;5026129;28;20111;-80
2022/01/13 10:14:11;;;;;;;84.53;76.07;;;;;;;-2.60;100.00;103075.94;5030896;28;20056;-78
2022/01/13 10:16:45;;;;;;;84.90;76.72;;;;;;;-2.60;100.00;103072.50;5024438;28;20115;-80
2022/01/13 10:19:31;;;;;;;83.75;75.57;;;;;;;-2.55;100.00;103086.16;5024606;28;20045;-81
2022/01/13 10:22:00;;;;;;;87.38;78.75;;;;;;;-2.61;100.00;103076.00;5020674;28;20084;-82
2022/01/13 10:24:28;;;;;;;86.28;77.97;;;;;;;-2.65;100.00;103067.47;5025617;28;20114;-79
2022/01/13 10:27:04;;;;;;;81.68;73.75;;;;;;;-2.63;100.00;103070.00;5024392;28;20050;-78
2022/01/13 10:29:43;;;;;;;89.22;80.53;;;;;;;-2.59;100.00;103061.19;5025438;28;20053;-79
2022/01/13 10:32:13;;;;;;;90.65;81.70;;;;;;;-2.63;100.00;103064.78;5022436;28;20108;-78
2022/01/13 10:34:42;;;;;;;95.47;86.18;;;;;;;-2.80;100.00;103060.28;5021773;28;20109;-80
2022/01/13 10:37:13;;;;;;;100.25;90.60;;;;;;;-3.07;100.00;103057.03;5020104;28;20123;-80
2022/01/13 10:39:56;;;;;;;95.75;86.35;;;;;;;-2.83;100.00;103063.03;5027196;28;20050;-80
2022/01/13 10:43:09;;;;;;;92.60;83.60;;;;;;;-2.90;100.00;103049.41;5024146;28;20053;-80
2022/01/13 10:45:39;;;;;;;96.38;86.50;;;;;;;-2.44;100.00;103055.34;5025278;28;20056;-82
2022/01/13 10:48:10;;;;;;;92.72;83.65;;;;;;;-2.91;100.00;103058.09;5025963;28;20061;-80
2022/01/13 10:50:40;;;;;;;101.22;90.95;;;;;;;-2.85;100.00;103050.06;5015781;28;20463;-82
2022/01/13 10:53:09;;;;;;;94.47;85.57;;;;;;;-2.26;100.00;103048.50;5024380;28;20437;-81
2022/01/13 10:55:42;;;;;;;98.30;88.45;;;;;;;-2.59;100.00;103056.81;5025500;28;20112;-80
2022/01/13 10:58:09;;;;;;;88.80;81.05;;;;;;;-2.80;100.00;103048.13;5016034;28;20045;-80
2022/01/13 11:00:37;;;;;;;94.93;85.32;;;;;;;-2.87;100.00;103044.09;5024024;28;20126;-79
2022/01/13 11:03:09;;;;;;;94.78;85.30;;;;;;;-2.91;100.00;103046.88;5024629;28;20473;-79
2022/01/13 11:05:39;;;;;;;93.72;84.22;;;;;;;-2.86;100.00;103034.53;5019874;28;20124;-80
2022/01/13 11:08:08;;;;;;;92.78;83.78;;;;;;;-2.98;100.00;103033.25;5024305;28;20054;-78
2022/01/13 11:10:37;;;;;;;91.30;82.72;;;;;;;-2.26;100.00;103038.09;5025320;28;20045;-80
2022/01/13 11:13:06;;;;;;;85.80;77.50;;;;;;;-2.90;100.00;103027.78;5018648;28;20471;-78